Time;durP1;ratioP1;P1;durP2;ratioP2;P2;SDS_P1;SDS_P2;PMS_P1;PMS_P2;Temp;Humidity;BMP_temperature;BMP_pressure;BME280_temperature;BME280_humidity;BME280_pressure;Samples;Min_cycle;Max_cycle;Signal;HPM_P1;HPM_P2
2023/07/09 00:01:19;;;;;;;6.97;4.30;;;25.60;99.90;;;;;;5031324;28;20029;-61
2023/07/09 00:03:56;;;;;;;5.13;3.35;;;25.60;99.90;;;;;;5047161;28;20029;-61
2023/07/09 00:06:22;;;;;;;4.72;3.35;;;25.50;99.90;;;;;;5051312;28;20477;-62
2023/07/09 00:08:48;;;;;;;4.25;3.40;;;25.40;99.90;;;;;;5050506;28;20032;-61
2023/07/09 00:11:16;;;;;;;4.45;3.13;;;25.40;99.90;;;;;;5051673;28;20315;-61
2023/07/09 00:13:42;;;;;;;5.53;3.78;;;25.30;99.90;;;;;;5046281;28;20428;-62
2023/07/09 00:16:14;;;;;;;6.28;4.15;;;25.20;99.90;;;;;;5045554;28;20080;-61
2023/07/09 00:18:40;;;;;;;9.57;4.32;;;25.10;99.90;;;;;;5035336;28;20021;-61
2023/07/09 00:21:05;;;;;;;7.25;3.42;;;25.10;99.90;;;;;;5050244;28;20398;-61
2023/07/09 00:23:31;;;;;;;8.60;4.22;;;25.00;99.90;;;;;;5049279;28;20025;-61
2023/07/09 00:25:57;;;;;;;8.63;3.63;;;25.00;99.90;;;;;;5051105;28;20031;-61
2023/07/09 00:28:23;;;;;;;4.10;3.58;;;24.90;99.90;;;;;;5048420;28;20061;-61
2023/07/09 00:30:49;;;;;;;8.15;3.97;;;24.90;99.90;;;;;;5049041;28;20017;-61
2023/07/09 00:33:19;;;;;;;8.68;3.35;;;24.80;99.90;;;;;;5042980;28;20032;-61
2023/07/09 00:35:48;;;;;;;6.40;3.33;;;24.80;99.90;;;;;;5048523;28;20420;-69
2023/07/09 00:38:22;;;;;;;6.47;3.38;;;24.80;99.90;;;;;;5048597;28;20054;-69
2023/07/09 00:41:03;;;;;;;5.32;3.53;;;24.80;99.90;;;;;;5052466;28;20158;-70
2023/07/09 00:43:36;;;;;;;5.55;3.58;;;24.70;99.90;;;;;;5050147;28;20029;-69
2023/07/09 00:46:30;;;;;;;5.03;3.92;;;24.70;99.90;;;;;;5048952;28;20501;-68
2023/07/09 00:49:04;;;;;;;6.75;3.47;;;24.70;99.90;;;;;;5050192;28;20041;-70
2023/07/09 00:51:33;;;;;;;6.20;3.88;;;24.60;99.90;;;;;;5035896;28;20064;-68
2023/07/09 00:54:07;;;;;;;7.70;4.15;;;24.60;99.90;;;;;;5052217;28;20025;-69
2023/07/09 00:56:44;;;;;;;7.57;3.60;;;24.50;99.90;;;;;;5049727;28;20018;-69
2023/07/09 00:59:14;;;;;;;6.70;3.83;;;24.40;99.90;;;;;;5042530;28;20465;-69
2023/07/09 01:01:40;;;;;;;6.45;3.60;;;24.40;99.90;;;;;;5048293;28;20079;-70
2023/07/09 01:04:07;;;;;;;8.32;4.90;;;24.30;99.90;;;;;;5050722;28;20037;-70
2023/07/09 01:06:43;;;;;;;8.27;3.85;;;24.30;99.90;;;;;;5050152;28;20550;-69
2023/07/09 01:09:10;;;;;;;8.75;3.67;;;24.30;99.90;;;;;;5050124;28;20112;-69
2023/07/09 01:11:37;;;;;;;5.28;3.85;;;24.30;99.90;;;;;;5050415;28;20501;-69
2023/07/09 01:14:07;;;;;;;6.63;4.28;;;24.30;99.90;;;;;;5054937;28;20484;-68
2023/07/09 01:16:37;;;;;;;7.57;4.15;;;24.20;99.90;;;;;;5054725;28;20397;-71
2023/07/09 01:19:04;;;;;;;8.52;4.45;;;24.20;99.90;;;;;;5051405;28;20032;-70
2023/07/09 01:21:31;;;;;;;7.13;3.85;;;24.10;99.90;;;;;;5052838;28;20106;-70
2023/07/09 01:23:57;;;;;;;;;;;24.00;99.90;;;;;;5051030;28;20048;-71
2023/07/09 01:26:25;;;;;;;9.25;3.95;;;24.00;99.90;;;;;;5035690;28;19917;-71
2023/07/09 01:28:52;;;;;;;8.45;3.92;;;23.90;99.90;;;;;;5049827;28;20029;-71
2023/07/09 01:31:20;;;;;;;9.18;4.88;;;24.00;99.90;;;;;;5054184;28;20128;-72
2023/07/09 01:33:46;;;;;;;5.55;3.75;;;23.90;99.90;;;;;;5052957;28;20025;-70
2023/07/09 01:36:15;;;;;;;8.68;4.10;;;23.90;99.90;;;;;;5054189;28;20025;-71
2023/07/09 01:38:42;;;;;;;7.90;4.20;;;23.80;99.90;;;;;;5050234;28;20071;-71
2023/07/09 01:41:08;;;;;;;13.25;4.60;;;23.80;99.90;;;;;;5048051;28;20025;-71
2023/07/09 01:43:34;;;;;;;4.78;4.13;;;23.80;99.90;;;;;;5050398;28;20086;-71
2023/07/09 01:46:00;;;;;;;7.43;3.95;;;23.80;99.90;;;;;;5045315;28;20025;-71
2023/07/09 01:48:26;;;;;;;6.13;3.45;;;23.80;99.90;;;;;;5048523;28;20031;-71
2023/07/09 01:50:53;;;;;;;9.32;4.25;;;23.80;99.90;;;;;;5055058;28;20115;-71
2023/07/09 01:53:24;;;;;;;5.50;4.00;;;23.70;99.90;;;;;;5053352;28;20040;-73
2023/07/09 01:55:51;;;;;;;9.65;4.70;;;23.70;99.90;;;;;;5054400;28;20025;-72
2023/07/09 01:58:16;;;;;;;7.18;5.00;;;23.60;99.90;;;;;;5046779;28;20079;-74
2023/07/09 02:00:44;;;;;;;6.82;4.30;;;23.60;99.90;;;;;;5034999;28;20402;-71
2023/07/09 02:03:11;;;;;;;7.57;4.82;;;23.60;99.90;;;;;;5050646;28;20494;-73
2023/07/09 02:05:37;;;;;;;11.40;5.47;;;23.60;99.90;;;;;;5054938;28;20505;-72
2023/07/09 02:08:03;;;;;;;9.65;4.85;;;23.60;99.90;;;;;;5053316;28;20029;-73
2023/07/09 02:10:29;;;;;;;7.10;4.95;;;23.60;99.90;;;;;;5052227;28;20493;-71
2023/07/09 02:12:55;;;;;;;5.90;4.63;;;23.50;99.90;;;;;;5043059;28;20104;-72
2023/07/09 02:15:20;;;;;;;12.45;5.32;;;23.50;99.90;;;;;;5039392;28;20083;-72
2023/07/09 02:17:46;;;;;;;8.73;5.15;;;23.60;99.90;;;;;;5053173;28;20032;-72
2023/07/09 02:20:13;;;;;;;8.55;4.75;;;23.50;99.90;;;;;;5054904;28;20027;-70
2023/07/09 02:22:40;;;;;;;;;;;23.60;99.90;;;;;;5053116;28;20087;-71
2023/07/09 02:25:06;;;;;;;6.33;4.50;;;23.60;99.90;;;;;;5054184;28;19995;-71
2023/07/09 02:27:33;;;;;;;7.27;5.03;;;23.60;99.90;;;;;;5051395;28;20032;-71
2023/07/09 02:29:59;;;;;;;10.52;4.97;;;23.60;99.90;;;;;;5053578;28;20028;-69
2023/07/09 02:32:26;;;;;;;8.25;4.53;;;23.60;99.90;;;;;;5045146;28;20425;-70
2023/07/09 02:34:54;;;;;;;9.07;5.28;;;23.60;99.90;;;;;;5050580;28;20108;-71
2023/07/09 02:37:22;;;;;;;12.10;4.95;;;23.60;99.90;;;;;;5052400;28;20078;-69
2023/07/09 02:39:47;;;;;;;8.45;5.10;;;23.60;99.90;;;;;;5054142;28;20028;-71
2023/07/09 02:42:15;;;;;;;10.52;5.13;;;23.50;99.90;;;;;;5052949;28;20477;-71
2023/07/09 02:44:42;;;;;;;11.55;5.47;;;23.50;99.90;;;;;;5052677;28;20029;-70
2023/07/09 02:47:08;;;;;;;6.57;4.23;;;23.60;99.90;;;;;;5052182;28;20035;-71
2023/07/09 02:49:34;;;;;;;9.25;4.75;;;23.50;99.90;;;;;;5045438;28;20028;-72
2023/07/09 02:52:00;;;;;;;8.43;4.57;;;23.50;99.90;;;;;;5033732;28;20482;-71
2023/07/09 02:54:25;;;;;;;8.20;5.00;;;23.50;99.90;;;;;;5049599;28;20029;-71
2023/07/09 02:56:51;;;;;;;8.57;5.20;;;23.50;99.90;;;;;;5051540;28;20444;-73
2023/07/09 02:59:17;;;;;;;8.07;4.88;;;23.50;99.90;;;;;;5052784;28;20021;-68
2023/07/09 03:01:43;;;;;;;6.63;4.80;;;23.40;99.90;;;;;;5053500;28;20464;-68
2023/07/09 03:04:08;;;;;;;11.52;5.75;;;23.40;99.90;;;;;;5037356;28;20064;-68
2023/07/09 03:06:36;;;;;;;7.68;5.25;;;23.30;99.90;;;;;;5050375;28;20401;-71
2023/07/09 03:09:02;;;;;;;9.07;5.22;;;23.30;99.90;;;;;;5052021;28;20033;-69
2023/07/09 03:11:30;;;;;;;10.13;5.70;;;23.20;99.90;;;;;;5048819;28;20041;-69
2023/07/09 03:13:57;;;;;;;12.18;5.97;;;23.20;99.90;;;;;;5039320;28;20053;-68
2023/07/09 03:16:23;;;;;;;9.30;6.00;;;23.30;99.90;;;;;;5035816;28;20076;-67
2023/07/09 03:18:48;;;;;;;13.88;5.90;;;23.30;99.90;;;;;;5034898;28;20096;-68
2023/07/09 03:21:14;;;;;;;13.40;5.18;;;23.30;99.90;;;;;;5033992;28;20029;-68
2023/07/09 03:23:41;;;;;;;8.10;5.28;;;23.40;99.90;;;;;;5047530;28;20105;-70
2023/07/09 03:26:07;;;;;;;9.60;6.20;;;23.40;99.90;;;;;;5037972;28;20031;-70
2023/07/09 03:28:33;;;;;;;7.20;5.20;;;23.40;99.90;;;;;;5050702;28;20032;-69
2023/07/09 03:30:59;;;;;;;7.75;5.15;;;23.40;99.90;;;;;;5050874;28;20056;-69
2023/07/09 03:33:25;;;;;;;14.45;6.28;;;23.40;99.90;;;;;;5050082;28;20473;-70
2023/07/09 03:35:51;;;;;;;12.23;5.85;;;23.40;99.90;;;;;;5052643;28;20029;-70
2023/07/09 03:38:18;;;;;;;11.18;6.57;;;23.40;99.90;;;;;;5050182;28;20059;-69
2023/07/09 03:40:43;;;;;;;13.30;6.35;;;23.50;99.90;;;;;;5050241;28;20028;-69
2023/07/09 03:43:10;;;;;;;12.13;5.53;;;23.50;99.90;;;;;;5050672;28;20425;-69
2023/07/09 03:45:37;;;;;;;9.90;6.40;;;23.50;99.90;;;;;;5053037;28;20477;-69
2023/07/09 03:48:04;;;;;;;11.95;6.25;;;23.50;99.90;;;;;;5050471;28;20461;-69
2023/07/09 03:50:30;;;;;;;13.45;6.15;;;23.50;99.90;;;;;;5052925;28;20032;-69
2023/07/09 03:52:55;;;;;;;10.05;6.45;;;23.50;99.90;;;;;;5050757;28;20108;-69
2023/07/09 03:55:21;;;;;;;11.77;5.85;;;23.50;99.90;;;;;;5050323;28;20021;-69
2023/07/09 03:57:47;;;;;;;9.80;6.03;;;23.50;99.90;;;;;;5049152;28;20035;-70
2023/07/09 04:00:14;;;;;;;8.65;6.03;;;23.50;99.90;;;;;;5051640;28;20032;-68
2023/07/09 04:02:40;;;;;;;10.00;5.43;;;23.50;99.90;;;;;;5051408;28;20036;-69
2023/07/09 04:05:08;;;;;;;8.20;5.63;;;23.50;99.90;;;;;;5047978;28;20496;-69
2023/07/09 04:07:34;;;;;;;16.75;6.38;;;23.50;99.90;;;;;;5050573;28;20039;-68
2023/07/09 04:10:00;;;;;;;9.48;6.53;;;23.60;99.90;;;;;;5052334;28;20037;-69
2023/07/09 04:12:26;;;;;;;11.25;5.25;;;23.60;99.90;;;;;;5051913;28;20025;-70
2023/07/09 04:14:51;;;;;;;9.93;5.32;;;23.60;99.90;;;;;;5038706;28;20029;-69
2023/07/09 04:17:17;;;;;;;7.00;5.13;;;23.50;99.90;;;;;;5041757;28;20355;-69
2023/07/09 04:19:42;;;;;;;7.20;5.22;;;23.60;99.90;;;;;;5051253;28;20469;-69
2023/07/09 04:22:10;;;;;;;9.65;5.63;;;23.50;99.90;;;;;;5050569;28;20114;-71
2023/07/09 04:24:36;;;;;;;7.40;4.40;;;23.50;99.90;;;;;;5043613;28;20036;-65
2023/07/09 04:27:02;;;;;;;9.88;6.07;;;23.50;99.90;;;;;;5033111;28;20401;-69
2023/07/09 04:29:29;;;;;;;10.00;5.30;;;23.50;99.90;;;;;;5039508;28;20021;-70
2023/07/09 04:31:55;;;;;;;12.77;7.18;;;23.50;99.90;;;;;;5037044;28;20112;-70
2023/07/09 04:34:21;;;;;;;13.95;7.05;;;23.50;99.90;;;;;;5040228;28;20098;-70
2023/07/09 04:36:46;;;;;;;11.98;7.03;;;23.60;99.90;;;;;;5050323;28;20442;-70
2023/07/09 04:39:12;;;;;;;10.82;6.40;;;23.60;99.90;;;;;;5052461;28;20389;-69
2023/07/09 04:41:38;;;;;;;10.38;6.32;;;23.70;99.90;;;;;;5051124;28;20037;-70
2023/07/09 04:44:03;;;;;;;13.63;6.18;;;23.70;99.90;;;;;;5051100;28;20044;-68
2023/07/09 04:46:29;;;;;;;11.63;7.38;;;23.70;99.90;;;;;;5050468;28;20108;-68
2023/07/09 04:48:55;;;;;;;12.63;7.57;;;23.80;99.90;;;;;;5048310;28;20474;-69
2023/07/09 04:51:21;;;;;;;10.07;5.78;;;23.80;99.90;;;;;;5052215;28;20029;-70
2023/07/09 04:53:47;;;;;;;10.25;5.75;;;23.80;99.90;;;;;;5053926;28;21692;-70
2023/07/09 04:56:12;;;;;;;10.10;5.55;;;23.80;99.90;;;;;;5054877;28;20045;-69
2023/07/09 04:58:38;;;;;;;17.92;6.00;;;23.80;99.90;;;;;;5055221;28;20509;-69
2023/07/09 05:01:04;;;;;;;9.35;5.47;;;23.80;99.90;;;;;;5054724;28;20035;-68
2023/07/09 05:03:29;;;;;;;8.77;5.95;;;23.80;99.90;;;;;;5054464;28;20483;-67
2023/07/09 05:05:56;;;;;;;10.45;5.80;;;23.80;99.90;;;;;;5044300;28;20509;-68
2023/07/09 05:08:22;;;;;;;7.55;4.85;;;23.80;99.90;;;;;;5056077;28;20033;-68
2023/07/09 05:10:50;;;;;;;9.98;5.47;;;23.80;99.90;;;;;;5054597;28;20046;-69
2023/07/09 05:13:16;;;;;;;10.27;4.90;;;23.80;99.90;;;;;;5054941;28;20024;-68
2023/07/09 05:15:45;;;;;;;10.60;5.85;;;23.80;99.90;;;;;;5053365;28;20028;-68
2023/07/09 05:18:14;;;;;;;9.82;5.53;;;23.80;99.90;;;;;;5052375;28;20029;-70
2023/07/09 05:20:41;;;;;;;11.13;5.97;;;23.90;99.90;;;;;;5054911;28;20695;-69
2023/07/09 05:23:08;;;;;;;9.00;6.43;;;24.00;99.90;;;;;;5052090;28;20032;-70
2023/07/09 05:25:34;;;;;;;;;;;24.00;99.90;;;;;;5054561;28;20515;-70
2023/07/09 05:27:59;;;;;;;11.13;6.50;;;24.10;99.90;;;;;;5054283;28;19908;-69
2023/07/09 05:30:26;;;;;;;8.40;6.15;;;24.20;99.90;;;;;;5054491;28;20025;-70
2023/07/09 05:32:53;;;;;;;9.40;6.50;;;24.30;99.90;;;;;;5043267;28;20025;-70
2023/07/09 05:38:22;;;;;;;11.85;6.68;;;24.50;99.90;;;;;;5038894;28;19932;-70
2023/07/09 05:40:48;;;;;;;11.60;6.80;;;24.60;99.90;;;;;;5042560;28;20025;-69
2023/07/09 05:43:14;;;;;;;15.43;6.97;;;24.70;99.90;;;;;;5051408;28;20033;-72
2023/07/09 05:45:40;;;;;;;10.75;6.18;;;24.80;99.90;;;;;;5054218;28;20048;-71
2023/07/09 05:48:06;;;;;;;10.27;6.43;;;25.00;99.90;;;;;;5053668;28;20035;-70
2023/07/09 05:50:34;;;;;;;8.43;5.32;;;25.00;99.90;;;;;;5053903;28;20037;-68
2023/07/09 05:53:00;;;;;;;9.30;5.68;;;25.10;99.90;;;;;;5052333;28;20048;-70
2023/07/09 05:55:26;;;;;;;15.57;6.40;;;25.20;99.90;;;;;;5054056;28;20025;-69
2023/07/09 05:57:53;;;;;;;10.98;6.13;;;25.30;99.90;;;;;;5047783;28;20108;-68
2023/07/09 06:00:18;;;;;;;9.13;5.50;;;25.40;99.90;;;;;;5052727;28;20049;-68
2023/07/09 06:02:44;;;;;;;9.98;6.05;;;25.40;99.90;;;;;;5045942;28;20036;-70
2023/07/09 06:05:11;;;;;;;9.10;5.38;;;25.40;99.90;;;;;;5053151;28;20421;-70
2023/07/09 06:07:37;;;;;;;8.23;4.88;;;25.60;99.90;;;;;;5053242;28;20132;-71
2023/07/09 06:10:07;;;;;;;9.93;6.20;;;25.60;99.90;;;;;;5053926;28;20409;-70
2023/07/09 06:12:33;;;;;;;9.60;5.82;;;25.80;99.90;;;;;;5051043;28;20112;-68
2023/07/09 06:14:59;;;;;;;13.00;7.28;;;25.90;99.90;;;;;;5034920;28;20466;-69
2023/07/09 06:17:25;;;;;;;9.57;6.22;;;26.00;99.90;;;;;;5042866;28;20379;-69
2023/07/09 06:19:50;;;;;;;11.32;5.53;;;26.20;99.90;;;;;;5051540;28;20040;-73
2023/07/09 06:22:16;;;;;;;9.55;5.90;;;26.40;99.90;;;;;;5050520;28;20025;-70
2023/07/09 06:24:41;;;;;;;10.10;5.75;;;26.70;99.90;;;;;;5054495;28;20044;-70
2023/07/09 06:27:08;;;;;;;6.63;4.90;;;26.70;99.90;;;;;;5052347;28;20029;-70
2023/07/09 06:29:34;;;;;;;9.77;5.53;;;26.70;99.90;;;;;;5051892;28;20448;-71
2023/07/09 06:32:00;;;;;;;8.77;5.72;;;26.80;99.90;;;;;;5046118;28;20078;-75
2023/07/09 06:34:25;;;;;;;12.50;6.65;;;27.10;99.90;;;;;;5054081;28;20021;-72
2023/07/09 06:36:51;;;;;;;12.52;6.47;;;27.20;99.90;;;;;;5047435;28;20032;-73
2023/07/09 06:39:19;;;;;;;7.38;5.72;;;27.40;99.90;;;;;;5038335;28;20033;-74
2023/07/09 06:41:45;;;;;;;10.82;5.45;;;27.60;99.90;;;;;;5040082;28;20328;-70
2023/07/09 06:44:10;;;;;;;13.52;5.90;;;27.90;99.90;;;;;;5047302;28;20482;-70
2023/07/09 06:46:36;;;;;;;8.48;5.35;;;28.00;99.90;;;;;;5049115;28;20053;-72
2023/07/09 06:49:05;;;;;;;9.05;5.60;;;28.10;99.90;;;;;;5047580;28;20517;-73
2023/07/09 06:51:31;;;;;;;10.48;5.00;;;28.40;99.90;;;;;;5051875;28;20037;-74
2023/07/09 06:53:57;;;;;;;9.13;5.32;;;28.90;99.90;;;;;;5054068;28;20039;-72
2023/07/09 06:56:23;;;;;;;10.25;5.95;;;29.40;99.90;;;;;;5052766;28;20060;-73
2023/07/09 06:58:49;;;;;;;11.48;5.30;;;30.10;99.90;;;;;;5050063;28;20511;-73
2023/07/09 07:01:15;;;;;;;7.28;4.80;;;31.20;99.90;;;;;;5052492;28;20018;-74
2023/07/09 07:03:40;;;;;;;11.10;4.47;;;32.30;99.70;;;;;;5052874;28;20029;-74
2023/07/09 07:06:06;;;;;;;4.22;3.55;;;32.90;99.10;;;;;;5050300;28;20030;-73
2023/07/09 07:08:32;;;;;;;5.97;4.07;;;33.50;98.50;;;;;;5051570;28;20031;-70
2023/07/09 07:11:05;;;;;;;7.53;4.60;;;34.00;97.90;;;;;;5049299;28;20567;-71
2023/07/09 07:13:34;;;;;;;7.90;4.35;;;34.10;97.30;;;;;;5053505;28;20290;-74
2023/07/09 07:16:00;;;;;;;5.63;4.03;;;34.00;97.10;;;;;;5053603;28;20036;-71
2023/07/09 07:18:26;;;;;;;8.65;4.47;;;34.10;97.00;;;;;;5050987;28;20093;-71
2023/07/09 07:20:52;;;;;;;9.80;4.70;;;34.00;97.00;;;;;;5050592;28;20057;-72
2023/07/09 07:23:18;;;;;;;11.97;4.97;;;34.00;97.10;;;;;;5053388;28;20024;-70
2023/07/09 07:25:45;;;;;;;6.87;5.10;;;34.10;96.90;;;;;;5052251;28;20033;-71
2023/07/09 07:28:11;;;;;;;6.35;4.47;;;34.10;96.80;;;;;;5051090;28;20275;-67
2023/07/09 07:30:37;;;;;;;6.33;4.43;;;34.10;96.70;;;;;;5039499;28;20079;-66
2023/07/09 07:33:03;;;;;;;8.03;5.20;;;33.60;96.70;;;;;;5041620;28;20054;-65
2023/07/09 07:35:28;;;;;;;14.83;6.13;;;32.80;97.80;;;;;;5046488;28;20021;-67
2023/07/09 07:37:54;;;;;;;10.13;6.73;;;32.40;98.60;;;;;;5051292;28;20030;-70
2023/07/09 07:40:20;;;;;;;12.85;7.60;;;32.00;99.30;;;;;;5051768;28;20017;-65
2023/07/09 07:42:46;;;;;;;17.83;7.27;;;31.50;99.90;;;;;;5053366;28;20496;-64
2023/07/09 07:45:12;;;;;;;14.90;8.52;;;31.10;99.90;;;;;;5050307;28;20271;-64
2023/07/09 07:47:39;;;;;;;14.27;9.23;;;30.40;99.90;;;;;;5036641;28;20056;-64
2023/07/09 07:50:06;;;;;;;17.23;8.82;;;29.70;99.90;;;;;;5050762;28;20021;-68
2023/07/09 07:52:31;;;;;;;;;;;29.20;99.90;;;;;;5051603;28;20063;-65
2023/07/09 07:54:57;;;;;;;21.87;8.53;;;28.90;99.90;;;;;;5050849;28;20341;-65
2023/07/09 07:57:25;;;;;;;17.83;9.13;;;28.80;99.90;;;;;;5050596;28;20021;-63
2023/07/09 07:59:50;;;;;;;15.13;8.80;;;28.60;99.90;;;;;;5042832;28;20032;-64
2023/07/09 08:02:16;;;;;;;13.70;8.98;;;28.40;99.90;;;;;;5052699;28;20021;-64
2023/07/09 08:04:41;;;;;;;13.05;7.75;;;28.20;99.90;;;;;;5052058;28;20032;-66
2023/07/09 08:07:09;;;;;;;10.95;7.63;;;28.20;99.90;;;;;;5063863;28;20032;-66
2023/07/09 08:09:35;;;;;;;10.88;7.55;;;28.30;99.90;;;;;;5064831;28;20096;-66
2023/07/09 08:12:02;;;;;;;13.23;6.60;;;28.20;99.90;;;;;;5044253;28;20041;-67
2023/07/09 08:14:28;;;;;;;12.65;7.30;;;28.40;99.90;;;;;;5037762;28;20024;-64
2023/07/09 08:16:53;;;;;;;17.77;9.03;;;28.40;99.90;;;;;;5046724;28;20033;-65
2023/07/09 08:19:19;;;;;;;10.98;6.53;;;28.40;99.90;;;;;;5046280;28;20279;-66
2023/07/09 08:21:45;;;;;;;17.30;8.48;;;28.30;99.90;;;;;;5048123;28;20486;-64
2023/07/09 08:24:12;;;;;;;22.05;8.68;;;28.40;99.90;;;;;;5049324;28;20039;-64
2023/07/09 08:26:39;;;;;;;;;;;28.50;99.90;;;;;;5047165;28;20389;-63
2023/07/09 08:29:05;;;;;;;12.85;8.95;;;28.20;99.90;;;;;;5038698;28;19909;-67
2023/07/09 08:31:30;;;;;;;19.55;8.82;;;28.20;99.90;;;;;;5039740;28;20055;-66
2023/07/09 08:33:56;;;;;;;18.38;9.20;;;28.20;99.90;;;;;;5051848;28;20026;-64
2023/07/09 08:36:23;;;;;;;16.83;9.27;;;28.20;99.90;;;;;;5046497;28;20060;-65
2023/07/09 08:38:48;;;;;;;13.02;8.23;;;28.30;99.90;;;;;;5052716;28;20482;-67
2023/07/09 08:41:38;;;;;;;12.77;8.48;;;28.50;99.90;;;;;;5052142;28;20028;-64
2023/07/09 08:44:20;;;;;;;23.98;9.90;;;28.50;99.90;;;;;;5050877;28;20108;-64
2023/07/09 08:47:24;;;;;;;14.40;8.65;;;28.70;99.90;;;;;;5040639;28;20079;-66
2023/07/09 08:50:14;;;;;;;16.35;9.63;;;28.90;99.90;;;;;;5049211;28;20032;-62
2023/07/09 08:52:43;;;;;;;13.68;8.07;;;28.90;99.90;;;;;;5052550;28;20040;-66
2023/07/09 08:55:15;;;;;;;11.18;6.03;;;28.80;99.90;;;;;;5050545;28;20040;-72
2023/07/09 08:57:52;;;;;;;9.68;6.30;;;29.20;99.90;;;;;;5051633;28;20033;-69
2023/07/09 09:00:30;;;;;;;11.48;7.05;;;29.50;99.90;;;;;;5049828;28;20111;-66
2023/07/09 09:03:00;;;;;;;8.48;5.70;;;29.60;99.90;;;;;;5048989;28;20128;-71
2023/07/09 09:05:26;;;;;;;11.13;6.53;;;30.00;99.90;;;;;;5050202;28;20538;-70
2023/07/09 09:07:57;;;;;;;9.48;6.70;;;30.10;99.90;;;;;;5049983;28;20037;-69
2023/07/09 09:10:33;;;;;;;12.50;6.75;;;29.90;99.90;;;;;;5050368;28;20033;-64
2023/07/09 09:13:02;;;;;;;11.52;6.55;;;29.90;99.90;;;;;;5047473;28;20086;-72
2023/07/09 09:15:28;;;;;;;11.35;6.72;;;30.00;99.90;;;;;;5049640;28;20036;-71
2023/07/09 09:17:59;;;;;;;11.05;7.18;;;30.30;99.90;;;;;;5051972;28;20025;-62
2023/07/09 09:20:28;;;;;;;14.13;7.60;;;30.30;99.90;;;;;;5050339;28;20025;-66
2023/07/09 09:23:15;;;;;;;13.43;5.80;;;30.20;99.90;;;;;;5052345;28;20029;-71
2023/07/09 09:25:45;;;;;;;11.05;6.85;;;30.40;99.90;;;;;;5050634;28;20029;-68
2023/07/09 09:28:11;;;;;;;11.82;8.60;;;30.60;99.90;;;;;;5050710;28;20091;-67
2023/07/09 09:30:36;;;;;;;14.60;9.47;;;30.50;99.90;;;;;;5051933;28;20428;-68
2023/07/09 09:33:07;;;;;;;24.40;9.20;;;30.40;99.90;;;;;;5052031;28;20104;-65
2023/07/09 09:35:39;;;;;;;13.70;9.43;;;30.10;99.90;;;;;;5053594;28;20091;-68
2023/07/09 09:38:22;;;;;;;13.75;9.23;;;30.20;99.90;;;;;;5042640;28;20032;-65
2023/07/09 09:40:48;;;;;;;15.27;8.02;;;29.90;99.90;;;;;;5035542;28;20099;-68
2023/07/09 09:43:17;;;;;;;15.27;7.20;;;29.70;99.90;;;;;;5050185;28;20508;-67
2023/07/09 09:45:44;;;;;;;10.38;7.30;;;29.60;99.90;;;;;;5042880;28;20025;-71
2023/07/09 09:48:14;;;;;;;;;;;29.40;99.90;;;;;;5035845;28;20036;-68
2023/07/09 09:50:41;;;;;;;14.13;6.80;;;29.30;99.90;;;;;;5047720;28;20279;-66
2023/07/09 09:53:08;;;;;;;9.15;6.07;;;29.30;99.90;;;;;;5052943;28;20539;-72
2023/07/09 09:55:34;;;;;;;8.60;6.68;;;29.50;99.90;;;;;;5038109;28;20466;-70
2023/07/09 09:58:02;;;;;;;10.70;6.65;;;29.70;99.90;;;;;;5045032;28;20049;-73
2023/07/09 10:00:33;;;;;;;9.40;6.75;;;29.80;99.90;;;;;;5053957;28;20029;-64
2023/07/09 10:03:06;;;;;;;10.27;5.97;;;29.80;99.90;;;;;;5053961;28;20152;-67
2023/07/09 10:05:50;;;;;;;10.18;6.68;;;30.10;99.90;;;;;;5052899;28;20032;-66
2023/07/09 10:08:40;;;;;;;14.02;6.72;;;30.20;99.90;;;;;;5046502;28;20037;-70
2023/07/09 10:11:32;;;;;;;14.52;6.82;;;30.30;99.90;;;;;;5038927;28;20427;-74
2023/07/09 10:14:11;;;;;;;10.77;6.97;;;30.30;99.90;;;;;;5059639;28;21426;-65
2023/07/09 10:16:44;;;;;;;10.50;6.35;;;30.40;99.90;;;;;;5062386;28;20105;-68
2023/07/09 10:19:23;;;;;;;8.50;6.40;;;30.50;99.90;;;;;;5042069;28;20237;-66
2023/07/09 10:22:00;;;;;;;11.07;7.10;;;30.50;99.90;;;;;;5053235;28;20028;-61
2023/07/09 10:24:28;;;;;;;;;;;30.40;99.90;;;;;;5054900;28;20504;-59
2023/07/09 10:27:03;;;;;;;8.98;6.30;;;30.10;99.90;;;;;;5054883;28;19909;-60
2023/07/09 10:29:32;;;;;;;12.35;6.05;;;29.40;99.90;;;;;;5053405;28;20028;-63
2023/07/09 10:32:31;;;;;;;11.75;6.20;;;29.00;99.90;;;;;;5054425;28;20105;-61
2023/07/09 10:35:07;;;;;;;11.13;6.40;;;29.10;99.90;;;;;;5053842;28;20025;-62
2023/07/09 10:38:01;;;;;;;12.45;5.07;;;29.10;99.90;;;;;;5050790;28;20028;-62
2023/07/09 10:41:05;;;;;;;16.25;5.90;;;29.00;99.90;;;;;;5047641;28;20126;-64
2023/07/09 10:43:57;;;;;;;11.27;5.75;;;28.90;99.90;;;;;;5051603;28;20037;-63
2023/07/09 10:46:27;;;;;;;7.97;5.65;;;28.80;99.90;;;;;;5012650;28;20033;-63
2023/07/09 10:48:55;;;;;;;8.95;6.05;;;28.70;99.90;;;;;;5052994;28;20090;-62
2023/07/09 10:51:28;;;;;;;11.63;5.43;;;28.60;99.90;;;;;;5052015;28;20023;-63
2023/07/09 10:54:04;;;;;;;9.90;4.90;;;28.40;99.90;;;;;;5054100;28;20029;-63
2023/07/09 10:56:37;;;;;;;13.67;5.30;;;28.30;99.90;;;;;;5055243;28;20477;-64
2023/07/09 10:59:21;;;;;;;8.55;5.63;;;28.20;99.90;;;;;;5054005;28;20396;-63
2023/07/09 11:01:57;;;;;;;11.18;5.93;;;28.30;99.90;;;;;;5051967;28;20108;-63
2023/07/09 11:04:42;;;;;;;7.20;5.03;;;28.50;99.90;;;;;;5033946;28;20036;-62
2023/07/09 11:07:14;;;;;;;9.82;5.40;;;28.70;99.90;;;;;;5047281;28;20504;-63
2023/07/09 11:09:45;;;;;;;5.53;4.65;;;28.90;99.90;;;;;;5050181;28;20021;-64
2023/07/09 11:12:21;;;;;;;8.23;5.15;;;29.00;99.90;;;;;;5048913;28;20069;-61
2023/07/09 11:14:52;;;;;;;10.18;5.22;;;29.00;99.90;;;;;;5039083;28;20037;-63
2023/07/09 11:17:20;;;;;;;8.68;5.35;;;28.90;99.90;;;;;;5051946;28;20466;-61
2023/07/09 11:19:53;;;;;;;7.88;5.85;;;29.00;99.90;;;;;;5052526;28;20113;-62
2023/07/09 11:22:24;;;;;;;14.55;6.00;;;29.00;99.90;;;;;;5053543;28;20035;-60
2023/07/09 11:25:10;;;;;;;6.18;5.00;;;29.00;99.90;;;;;;5053436;28;20031;-67
2023/07/09 11:27:52;;;;;;;10.13;5.80;;;29.00;99.90;;;;;;5052969;28;20029;-64
2023/07/09 11:30:20;;;;;;;9.15;5.78;;;29.10;99.90;;;;;;5053329;28;20025;-62
2023/07/09 11:32:47;;;;;;;12.45;6.60;;;29.10;99.90;;;;;;5035122;28;20025;-62
2023/07/09 11:35:28;;;;;;;10.00;6.43;;;29.00;99.90;;;;;;5046152;28;20489;-62
2023/07/09 11:37:55;;;;;;;8.52;5.70;;;28.80;99.90;;;;;;5052598;28;20076;-64
2023/07/09 11:40:22;;;;;;;10.15;6.32;;;28.80;99.90;;;;;;5052018;28;20489;-64
2023/07/09 11:42:51;;;;;;;8.18;5.32;;;28.90;99.90;;;;;;5053061;28;20087;-65
2023/07/09 11:45:37;;;;;;;7.80;4.95;;;28.90;99.90;;;;;;5048647;28;20035;-61
2023/07/09 11:48:22;;;;;;;8.47;4.27;;;28.70;99.90;;;;;;5049510;28;20051;-62
2023/07/09 11:50:51;;;;;;;7.75;5.18;;;28.60;99.90;;;;;;5048036;28;20029;-62
2023/07/09 11:53:45;;;;;;;5.80;4.45;;;28.50;99.90;;;;;;5042892;28;20481;-65
2023/07/09 11:56:11;;;;;;;7.70;3.53;;;28.50;99.90;;;;;;5040309;28;20025;-63
2023/07/09 11:58:48;;;;;;;4.37;3.00;;;28.30;99.90;;;;;;5038275;28;20063;-62
2023/07/09 12:01:18;;;;;;;8.70;3.55;;;28.10;99.90;;;;;;5050086;28;20116;-64
2023/07/09 12:03:46;;;;;;;3.88;3.05;;;27.90;99.90;;;;;;5073053;28;20035;-58
2023/07/09 12:06:22;;;;;;;6.63;3.30;;;27.90;99.90;;;;;;5067760;28;20033;-59
2023/07/09 12:08:49;;;;;;;6.75;3.63;;;27.80;99.90;;;;;;5063854;28;20544;-61
2023/07/09 12:11:23;;;;;;;5.20;3.25;;;27.60;99.90;;;;;;5046137;28;20378;-59
2023/07/09 12:13:50;;;;;;;5.43;3.72;;;27.30;99.90;;;;;;5052681;28;20025;-63
2023/07/09 12:16:38;;;;;;;4.32;3.25;;;27.10;99.90;;;;;;5049158;28;20025;-62
2023/07/09 12:19:04;;;;;;;3.67;2.70;;;27.10;99.90;;;;;;5052650;28;20036;-62
2023/07/09 12:21:34;;;;;;;4.13;2.58;;;27.10;99.90;;;;;;5052674;28;20021;-61
2023/07/09 12:24:01;;;;;;;4.78;2.67;;;27.30;99.90;;;;;;5051725;28;20178;-65
2023/07/09 12:26:30;;;;;;;4.22;3.00;;;27.80;99.90;;;;;;5048786;28;20025;-63
2023/07/09 12:28:58;;;;;;;3.33;2.53;;;28.00;99.90;;;;;;5052022;28;20494;-62
2023/07/09 12:31:29;;;;;;;3.35;2.50;;;28.00;99.90;;;;;;5053096;28;20044;-62
2023/07/09 12:33:57;;;;;;;4.70;2.70;;;27.80;99.90;;;;;;5046374;28;20361;-64
2023/07/09 12:36:24;;;;;;;4.82;3.38;;;27.70;99.90;;;;;;5052493;28;20473;-64
2023/07/09 12:38:51;;;;;;;;;;;27.80;99.90;;;;;;5052211;28;20032;-64
2023/07/09 12:41:24;;;;;;;4.90;3.00;;;28.10;99.90;;;;;;5050235;28;19952;-63
2023/07/09 12:43:53;;;;;;;4.35;3.35;;;28.30;99.90;;;;;;5049841;28;20042;-65
2023/07/09 12:46:19;;;;;;;4.15;3.17;;;28.30;99.90;;;;;;5051627;28;20064;-62
2023/07/09 12:48:50;;;;;;;7.70;3.78;;;28.30;99.90;;;;;;5049475;28;20053;-64
2023/07/09 12:51:20;;;;;;;6.38;4.20;;;28.20;99.90;;;;;;5051510;28;20460;-62
2023/07/09 12:53:46;;;;;;;4.70;2.90;;;28.20;99.90;;;;;;5049559;28;20025;-66
2023/07/09 12:56:15;;;;;;;8.00;3.97;;;28.20;99.90;;;;;;5050132;28;20025;-62
2023/07/09 12:58:40;;;;;;;4.95;3.00;;;28.30;99.90;;;;;;5051876;28;20492;-66